sensor_id;sensor_type;location;lat;lon;timestamp;P1;durP1;ratioP1;P2;durP2;ratioP2
19675;SDS011;39539;52.202;9.876;2022-09-27T00:00:28;1.00;;;1.00;;
19675;SDS011;39539;52.202;9.876;2022-09-27T00:02:53;1.00;;;1.00;;
19675;SDS011;39539;52.202;9.876;2022-09-27T00:05:20;1.52;;;1.20;;
19675;SDS011;39539;52.202;9.876;2022-09-27T00:07:45;1.85;;;1.00;;
19675;SDS011;39539;52.202;9.876;2022-09-27T00:10:11;1.02;;;0.80;;
19675;SDS011;39539;52.202;9.876;2022-09-27T00:12:37;1.08;;;0.90;;
19675;SDS011;39539;52.202;9.876;2022-09-27T00:15:03;1.05;;;1.00;;
19675;SDS011;39539;52.202;9.876;2022-09-27T00:17:30;1.25;;;1.10;;
19675;SDS011;39539;52.202;9.876;2022-09-27T00:19:57;0.88;;;0.88;;
19675;SDS011;39539;52.202;9.876;2022-09-27T00:22:24;1.00;;;1.00;;
19675;SDS011;39539;52.202;9.876;2022-09-27T00:24:50;1.20;;;1.10;;
19675;SDS011;39539;52.202;9.876;2022-09-27T00:27:16;1.08;;;1.08;;
19675;SDS011;39539;52.202;9.876;2022-09-27T00:29:42;1.02;;;0.95;;
19675;SDS011;39539;52.202;9.876;2022-09-27T00:32:10;0.90;;;0.90;;
19675;SDS011;39539;52.202;9.876;2022-09-27T00:34:35;0.90;;;0.90;;
19675;SDS011;39539;52.202;9.876;2022-09-27T00:37:01;0.82;;;0.82;;
19675;SDS011;39539;52.202;9.876;2022-09-27T00:39:26;0.98;;;0.98;;
19675;SDS011;39539;52.202;9.876;2022-09-27T00:41:52;0.90;;;0.90;;
19675;SDS011;39539;52.202;9.876;2022-09-27T00:46:49;1.25;;;0.90;;
19675;SDS011;39539;52.202;9.876;2022-09-27T00:52:22;2.63;;;1.02;;
19675;SDS011;39539;52.202;9.876;2022-09-27T00:54:52;0.80;;;0.80;;
19675;SDS011;39539;52.202;9.876;2022-09-27T00:57:23;0.93;;;0.90;;
19675;SDS011;39539;52.202;9.876;2022-09-27T00:59:50;0.95;;;0.90;;
19675;SDS011;39539;52.202;9.876;2022-09-27T01:02:19;1.08;;;1.08;;
19675;SDS011;39539;52.202;9.876;2022-09-27T01:04:44;0.88;;;0.88;;
19675;SDS011;39539;52.202;9.876;2022-09-27T01:07:11;0.90;;;0.90;;
19675;SDS011;39539;52.202;9.876;2022-09-27T01:09:37;1.02;;;1.00;;
19675;SDS011;39539;52.202;9.876;2022-09-27T01:12:10;1.13;;;1.10;;
19675;SDS011;39539;52.202;9.876;2022-09-27T01:17:58;1.40;;;1.30;;
19675;SDS011;39539;52.202;9.876;2022-09-27T01:31:40;1.60;;;1.50;;
19675;SDS011;39539;52.202;9.876;2022-09-27T01:42:30;2.22;;;2.05;;
19675;SDS011;39539;52.202;9.876;2022-09-27T01:47:43;2.00;;;1.90;;
19675;SDS011;39539;52.202;9.876;2022-09-27T01:50:14;1.85;;;1.75;;
19675;SDS011;39539;52.202;9.876;2022-09-27T01:52:49;2.05;;;1.85;;
19675;SDS011;39539;52.202;9.876;2022-09-27T01:55:20;1.70;;;1.60;;
19675;SDS011;39539;52.202;9.876;2022-09-27T01:57:56;1.85;;;1.67;;
19675;SDS011;39539;52.202;9.876;2022-09-27T02:00:26;1.50;;;1.48;;
19675;SDS011;39539;52.202;9.876;2022-09-27T02:03:13;1.58;;;1.48;;
19675;SDS011;39539;52.202;9.876;2022-09-27T02:05:46;1.85;;;1.75;;
19675;SDS011;39539;52.202;9.876;2022-09-27T02:08:22;1.95;;;1.85;;
19675;SDS011;39539;52.202;9.876;2022-09-27T02:10:53;1.90;;;1.80;;
19675;SDS011;39539;52.202;9.876;2022-09-27T02:13:32;2.15;;;1.95;;
19675;SDS011;39539;52.202;9.876;2022-09-27T02:18:53;2.80;;;2.58;;
19675;SDS011;39539;52.202;9.876;2022-09-27T02:21:43;2.83;;;2.63;;
19675;SDS011;39539;52.202;9.876;2022-09-27T02:24:21;3.08;;;2.85;;
19675;SDS011;39539;52.202;9.876;2022-09-27T02:26:56;3.08;;;2.78;;
19675;SDS011;39539;52.202;9.876;2022-09-27T02:29:32;3.30;;;3.10;;
19675;SDS011;39539;52.202;9.876;2022-09-27T02:32:01;3.20;;;2.90;;
19675;SDS011;39539;52.202;9.876;2022-09-27T02:34:27;2.92;;;2.70;;
19675;SDS011;39539;52.202;9.876;2022-09-27T02:36:55;3.80;;;2.92;;
19675;SDS011;39539;52.202;9.876;2022-09-27T02:39:23;2.80;;;2.60;;
19675;SDS011;39539;52.202;9.876;2022-09-27T02:41:49;3.40;;;2.88;;
19675;SDS011;39539;52.202;9.876;2022-09-27T02:44:14;3.13;;;2.55;;
19675;SDS011;39539;52.202;9.876;2022-09-27T02:49:50;3.10;;;2.90;;
19675;SDS011;39539;52.202;9.876;2022-09-27T02:55:21;3.63;;;2.75;;
19675;SDS011;39539;52.202;9.876;2022-09-27T03:03:20;3.42;;;3.20;;
19675;SDS011;39539;52.202;9.876;2022-09-27T03:08:36;3.45;;;3.15;;
19675;SDS011;39539;52.202;9.876;2022-09-27T03:11:02;3.30;;;3.00;;
19675;SDS011;39539;52.202;9.876;2022-09-27T03:13:28;3.22;;;3.03;;
19675;SDS011;39539;52.202;9.876;2022-09-27T03:15:54;3.97;;;3.63;;
19675;SDS011;39539;52.202;9.876;2022-09-27T03:18:19;5.38;;;3.10;;
19675;SDS011;39539;52.202;9.876;2022-09-27T03:20:47;3.40;;;2.95;;
19675;SDS011;39539;52.202;9.876;2022-09-27T03:23:12;3.70;;;3.40;;
19675;SDS011;39539;52.202;9.876;2022-09-27T03:25:37;4.05;;;3.67;;
19675;SDS011;39539;52.202;9.876;2022-09-27T03:28:10;3.88;;;3.58;;
19675;SDS011;39539;52.202;9.876;2022-09-27T03:30:36;4.45;;;4.15;;
19675;SDS011;39539;52.202;9.876;2022-09-27T03:33:02;4.60;;;4.20;;
19675;SDS011;39539;52.202;9.876;2022-09-27T03:35:27;4.25;;;3.85;;
19675;SDS011;39539;52.202;9.876;2022-09-27T03:37:53;4.55;;;4.18;;
19675;SDS011;39539;52.202;9.876;2022-09-27T03:40:18;4.00;;;3.63;;
19675;SDS011;39539;52.202;9.876;2022-09-27T03:42:43;4.00;;;3.75;;
19675;SDS011;39539;52.202;9.876;2022-09-27T03:45:09;5.35;;;4.07;;
19675;SDS011;39539;52.202;9.876;2022-09-27T03:47:38;4.30;;;3.90;;
19675;SDS011;39539;52.202;9.876;2022-09-27T03:50:05;4.38;;;3.97;;
19675;SDS011;39539;52.202;9.876;2022-09-27T03:52:31;6.80;;;4.00;;
19675;SDS011;39539;52.202;9.876;2022-09-27T03:54:58;4.90;;;4.40;;
19675;SDS011;39539;52.202;9.876;2022-09-27T03:57:24;4.50;;;4.10;;
19675;SDS011;39539;52.202;9.876;2022-09-27T03:59:49;5.15;;;4.65;;
19675;SDS011;39539;52.202;9.876;2022-09-27T04:02:15;4.72;;;4.32;;
19675;SDS011;39539;52.202;9.876;2022-09-27T04:04:40;5.00;;;4.45;;
19675;SDS011;39539;52.202;9.876;2022-09-27T04:07:07;5.22;;;4.75;;
19675;SDS011;39539;52.202;9.876;2022-09-27T04:09:34;4.82;;;4.35;;
19675;SDS011;39539;52.202;9.876;2022-09-27T04:11:59;5.05;;;4.65;;
19675;SDS011;39539;52.202;9.876;2022-09-27T04:14:25;5.47;;;4.93;;
19675;SDS011;39539;52.202;9.876;2022-09-27T04:16:51;5.32;;;4.82;;
19675;SDS011;39539;52.202;9.876;2022-09-27T04:19:17;5.65;;;5.07;;
19675;SDS011;39539;52.202;9.876;2022-09-27T04:21:42;5.75;;;5.15;;
19675;SDS011;39539;52.202;9.876;2022-09-27T04:24:07;10.68;;;5.57;;
19675;SDS011;39539;52.202;9.876;2022-09-27T04:26:34;5.35;;;4.88;;
19675;SDS011;39539;52.202;9.876;2022-09-27T04:29:01;5.72;;;5.20;;
19675;SDS011;39539;52.202;9.876;2022-09-27T04:31:26;6.45;;;5.90;;
19675;SDS011;39539;52.202;9.876;2022-09-27T04:33:52;5.53;;;5.00;;
19675;SDS011;39539;52.202;9.876;2022-09-27T04:36:19;4.00;;;3.80;;
19675;SDS011;39539;52.202;9.876;2022-09-27T04:38:56;3.67;;;3.40;;
19675;SDS011;39539;52.202;9.876;2022-09-27T04:41:23;3.83;;;3.50;;
19675;SDS011;39539;52.202;9.876;2022-09-27T04:43:52;3.17;;;2.85;;
19675;SDS011;39539;52.202;9.876;2022-09-27T04:46:20;2.83;;;2.50;;
19675;SDS011;39539;52.202;9.876;2022-09-27T04:48:46;2.40;;;2.00;;
19675;SDS011;39539;52.202;9.876;2022-09-27T04:51:12;2.42;;;2.10;;
19675;SDS011;39539;52.202;9.876;2022-09-27T04:53:41;2.55;;;2.10;;
19675;SDS011;39539;52.202;9.876;2022-09-27T04:56:06;3.45;;;2.22;;
19675;SDS011;39539;52.202;9.876;2022-09-27T04:58:32;1.67;;;1.40;;
19675;SDS011;39539;52.202;9.876;2022-09-27T05:00:59;1.75;;;1.65;;
19675;SDS011;39539;52.202;9.876;2022-09-27T05:03:26;1.90;;;1.75;;
19675;SDS011;39539;52.202;9.876;2022-09-27T05:05:52;2.25;;;1.60;;
19675;SDS011;39539;52.202;9.876;2022-09-27T05:08:17;2.25;;;1.73;;
19675;SDS011;39539;52.202;9.876;2022-09-27T05:10:43;1.90;;;1.67;;
19675;SDS011;39539;52.202;9.876;2022-09-27T05:13:09;2.10;;;1.80;;
19675;SDS011;39539;52.202;9.876;2022-09-27T05:15:34;2.10;;;1.80;;
19675;SDS011;39539;52.202;9.876;2022-09-27T05:18:00;2.67;;;1.70;;
19675;SDS011;39539;52.202;9.876;2022-09-27T05:20:26;1.75;;;1.65;;
19675;SDS011;39539;52.202;9.876;2022-09-27T05:22:52;1.90;;;1.60;;
19675;SDS011;39539;52.202;9.876;2022-09-27T05:25:17;2.00;;;1.85;;
19675;SDS011;39539;52.202;9.876;2022-09-27T05:27:43;3.42;;;1.80;;
19675;SDS011;39539;52.202;9.876;2022-09-27T05:30:09;2.22;;;2.03;;
19675;SDS011;39539;52.202;9.876;2022-09-27T05:32:38;1.88;;;1.65;;
19675;SDS011;39539;52.202;9.876;2022-09-27T05:35:07;1.70;;;1.60;;
19675;SDS011;39539;52.202;9.876;2022-09-27T05:37:33;3.17;;;2.00;;
19675;SDS011;39539;52.202;9.876;2022-09-27T05:39:59;2.15;;;1.95;;
19675;SDS011;39539;52.202;9.876;2022-09-27T05:42:24;2.25;;;2.05;;
19675;SDS011;39539;52.202;9.876;2022-09-27T05:44:50;3.30;;;3.10;;
19675;SDS011;39539;52.202;9.876;2022-09-27T05:47:15;3.90;;;3.50;;
19675;SDS011;39539;52.202;9.876;2022-09-27T05:49:41;3.95;;;3.65;;
19675;SDS011;39539;52.202;9.876;2022-09-27T05:52:06;5.68;;;4.43;;
19675;SDS011;39539;52.202;9.876;2022-09-27T05:54:32;5.55;;;5.05;;
19675;SDS011;39539;52.202;9.876;2022-09-27T05:56:57;5.20;;;4.90;;
19675;SDS011;39539;52.202;9.876;2022-09-27T05:59:26;5.07;;;4.68;;
19675;SDS011;39539;52.202;9.876;2022-09-27T06:01:54;4.60;;;4.20;;
19675;SDS011;39539;52.202;9.876;2022-09-27T06:04:19;4.90;;;4.50;;
19675;SDS011;39539;52.202;9.876;2022-09-27T06:06:47;4.88;;;3.22;;
19675;SDS011;39539;52.202;9.876;2022-09-27T06:09:13;4.38;;;3.70;;
19675;SDS011;39539;52.202;9.876;2022-09-27T06:11:40;4.13;;;3.72;;
19675;SDS011;39539;52.202;9.876;2022-09-27T06:14:12;3.30;;;3.05;;
19675;SDS011;39539;52.202;9.876;2022-09-27T06:16:38;3.72;;;3.17;;
19675;SDS011;39539;52.202;9.876;2022-09-27T06:19:04;3.60;;;3.20;;
19675;SDS011;39539;52.202;9.876;2022-09-27T06:21:30;4.97;;;3.30;;
19675;SDS011;39539;52.202;9.876;2022-09-27T06:23:56;3.72;;;3.20;;
19675;SDS011;39539;52.202;9.876;2022-09-27T06:26:26;3.90;;;3.60;;
19675;SDS011;39539;52.202;9.876;2022-09-27T06:28:52;5.57;;;3.53;;
19675;SDS011;39539;52.202;9.876;2022-09-27T06:31:21;3.38;;;3.08;;
19675;SDS011;39539;52.202;9.876;2022-09-27T06:33:47;4.18;;;3.58;;
19675;SDS011;39539;52.202;9.876;2022-09-27T06:36:16;3.75;;;3.45;;
19675;SDS011;39539;52.202;9.876;2022-09-27T06:38:42;4.20;;;3.55;;
19675;SDS011;39539;52.202;9.876;2022-09-27T06:41:08;3.42;;;3.13;;
19675;SDS011;39539;52.202;9.876;2022-09-27T06:43:34;3.15;;;2.85;;
19675;SDS011;39539;52.202;9.876;2022-09-27T06:46:00;2.75;;;2.42;;
19675;SDS011;39539;52.202;9.876;2022-09-27T06:48:31;3.13;;;2.63;;
19675;SDS011;39539;52.202;9.876;2022-09-27T06:50:57;3.10;;;2.50;;
19675;SDS011;39539;52.202;9.876;2022-09-27T06:53:27;3.90;;;2.47;;
19675;SDS011;39539;52.202;9.876;2022-09-27T06:55:56;3.20;;;2.33;;
19675;SDS011;39539;52.202;9.876;2022-09-27T06:58:23;3.33;;;2.47;;
19675;SDS011;39539;52.202;9.876;2022-09-27T07:01:07;2.67;;;2.40;;
19675;SDS011;39539;52.202;9.876;2022-09-27T07:03:36;2.58;;;2.22;;
19675;SDS011;39539;52.202;9.876;2022-09-27T07:06:06;2.42;;;2.20;;
19675;SDS011;39539;52.202;9.876;2022-09-27T07:08:36;3.10;;;2.80;;
19675;SDS011;39539;52.202;9.876;2022-09-27T07:11:04;3.00;;;2.70;;
19675;SDS011;39539;52.202;9.876;2022-09-27T07:13:32;2.88;;;2.20;;
19675;SDS011;39539;52.202;9.876;2022-09-27T07:16:01;2.22;;;2.00;;
19675;SDS011;39539;52.202;9.876;2022-09-27T07:18:28;3.20;;;2.30;;
19675;SDS011;39539;52.202;9.876;2022-09-27T07:20:53;3.38;;;1.88;;
19675;SDS011;39539;52.202;9.876;2022-09-27T07:23:19;3.33;;;2.33;;
19675;SDS011;39539;52.202;9.876;2022-09-27T07:25:45;2.95;;;1.90;;
19675;SDS011;39539;52.202;9.876;2022-09-27T07:28:14;3.15;;;2.15;;
19675;SDS011;39539;52.202;9.876;2022-09-27T07:30:42;2.45;;;1.80;;
19675;SDS011;39539;52.202;9.876;2022-09-27T07:33:09;2.28;;;1.83;;
19675;SDS011;39539;52.202;9.876;2022-09-27T07:35:37;2.17;;;1.80;;
19675;SDS011;39539;52.202;9.876;2022-09-27T07:38:19;2.30;;;2.10;;
19675;SDS011;39539;52.202;9.876;2022-09-27T07:40:47;3.25;;;2.28;;
19675;SDS011;39539;52.202;9.876;2022-09-27T07:43:12;1.77;;;1.67;;
19675;SDS011;39539;52.202;9.876;2022-09-27T07:45:38;2.83;;;1.90;;
19675;SDS011;39539;52.202;9.876;2022-09-27T07:48:04;2.22;;;1.55;;
19675;SDS011;39539;52.202;9.876;2022-09-27T07:50:32;2.75;;;1.90;;
19675;SDS011;39539;52.202;9.876;2022-09-27T07:52:59;2.28;;;1.60;;
19675;SDS011;39539;52.202;9.876;2022-09-27T07:55:25;2.22;;;2.03;;
19675;SDS011;39539;52.202;9.876;2022-09-27T07:57:50;2.22;;;1.70;;
19675;SDS011;39539;52.202;9.876;2022-09-27T08:00:17;1.50;;;1.35;;
19675;SDS011;39539;52.202;9.876;2022-09-27T08:02:43;2.60;;;1.55;;
19675;SDS011;39539;52.202;9.876;2022-09-27T08:05:10;1.80;;;1.70;;
19675;SDS011;39539;52.202;9.876;2022-09-27T08:07:36;2.55;;;1.48;;
19675;SDS011;39539;52.202;9.876;2022-09-27T08:10:03;1.58;;;1.48;;
19675;SDS011;39539;52.202;9.876;2022-09-27T08:12:30;2.35;;;1.65;;
19675;SDS011;39539;52.202;9.876;2022-09-27T08:14:55;4.25;;;2.00;;
19675;SDS011;39539;52.202;9.876;2022-09-27T08:17:26;1.98;;;1.80;;
19675;SDS011;39539;52.202;9.876;2022-09-27T08:19:52;2.13;;;1.90;;
19675;SDS011;39539;52.202;9.876;2022-09-27T08:22:18;1.80;;;1.70;;
19675;SDS011;39539;52.202;9.876;2022-09-27T08:24:45;2.80;;;2.13;;
19675;SDS011;39539;52.202;9.876;2022-09-27T08:27:11;3.70;;;2.03;;
19675;SDS011;39539;52.202;9.876;2022-09-27T08:29:37;2.00;;;1.90;;
19675;SDS011;39539;52.202;9.876;2022-09-27T08:32:08;2.90;;;2.60;;
19675;SDS011;39539;52.202;9.876;2022-09-27T08:34:34;2.72;;;2.40;;
19675;SDS011;39539;52.202;9.876;2022-09-27T08:37:03;2.72;;;2.38;;
19675;SDS011;39539;52.202;9.876;2022-09-27T08:39:29;3.38;;;2.10;;
19675;SDS011;39539;52.202;9.876;2022-09-27T08:45:05;1.77;;;1.67;;
19675;SDS011;39539;52.202;9.876;2022-09-27T08:47:42;1.73;;;1.23;;
19675;SDS011;39539;52.202;9.876;2022-09-27T08:55:53;1.55;;;1.00;;
19675;SDS011;39539;52.202;9.876;2022-09-27T08:58:25;1.50;;;1.40;;
19675;SDS011;39539;52.202;9.876;2022-09-27T09:00:53;1.85;;;1.23;;
19675;SDS011;39539;52.202;9.876;2022-09-27T09:03:22;1.10;;;1.00;;
19675;SDS011;39539;52.202;9.876;2022-09-27T09:05:56;0.93;;;0.90;;
19675;SDS011;39539;52.202;9.876;2022-09-27T09:14:33;1.00;;;0.90;;
19675;SDS011;39539;52.202;9.876;2022-09-27T09:30:24;1.55;;;0.80;;
19675;SDS011;39539;52.202;9.876;2022-09-27T09:33:10;1.55;;;0.77;;
19675;SDS011;39539;52.202;9.876;2022-09-27T09:35:52;2.42;;;0.88;;
19675;SDS011;39539;52.202;9.876;2022-09-27T09:38:35;0.95;;;0.77;;
19675;SDS011;39539;52.202;9.876;2022-09-27T09:41:30;0.73;;;0.50;;
19675;SDS011;39539;52.202;9.876;2022-09-27T09:51:44;2.05;;;0.70;;
19675;SDS011;39539;52.202;9.876;2022-09-27T09:57:05;3.10;;;0.93;;
19675;SDS011;39539;52.202;9.876;2022-09-27T09:59:39;2.30;;;0.80;;
19675;SDS011;39539;52.202;9.876;2022-09-27T10:02:32;2.38;;;0.70;;
19675;SDS011;39539;52.202;9.876;2022-09-27T10:05:02;2.95;;;0.50;;
19675;SDS011;39539;52.202;9.876;2022-09-27T10:07:29;1.45;;;0.68;;
19675;SDS011;39539;52.202;9.876;2022-09-27T10:10:01;2.35;;;0.80;;
19675;SDS011;39539;52.202;9.876;2022-09-27T10:12:30;2.13;;;0.60;;
19675;SDS011;39539;52.202;9.876;2022-09-27T10:14:58;1.95;;;0.65;;
19675;SDS011;39539;52.202;9.876;2022-09-27T10:17:37;2.75;;;0.50;;
19675;SDS011;39539;52.202;9.876;2022-09-27T10:20:06;0.95;;;0.40;;
19675;SDS011;39539;52.202;9.876;2022-09-27T10:22:46;1.02;;;0.60;;
19675;SDS011;39539;52.202;9.876;2022-09-27T10:25:19;1.95;;;0.50;;
19675;SDS011;39539;52.202;9.876;2022-09-27T10:27:52;0.85;;;0.47;;
19675;SDS011;39539;52.202;9.876;2022-09-27T10:30:21;1.48;;;0.57;;
19675;SDS011;39539;52.202;9.876;2022-09-27T10:32:49;0.50;;;0.43;;
19675;SDS011;39539;52.202;9.876;2022-09-27T10:35:21;1.60;;;0.50;;
19675;SDS011;39539;52.202;9.876;2022-09-27T10:38:19;1.90;;;0.30;;
19675;SDS011;39539;52.202;9.876;2022-09-27T10:40:46;3.15;;;0.60;;
19675;SDS011;39539;52.202;9.876;2022-09-27T10:43:25;1.67;;;0.50;;
19675;SDS011;39539;52.202;9.876;2022-09-27T10:45:59;1.23;;;0.57;;
19675;SDS011;39539;52.202;9.876;2022-09-27T10:48:26;1.65;;;0.50;;
19675;SDS011;39539;52.202;9.876;2022-09-27T10:50:57;0.88;;;0.35;;
19675;SDS011;39539;52.202;9.876;2022-09-27T10:53:28;1.13;;;0.70;;
19675;SDS011;39539;52.202;9.876;2022-09-27T10:55:57;0.40;;;0.40;;
19675;SDS011;39539;52.202;9.876;2022-09-27T10:58:27;1.58;;;0.50;;
19675;SDS011;39539;52.202;9.876;2022-09-27T11:00:58;1.17;;;0.40;;
19675;SDS011;39539;52.202;9.876;2022-09-27T11:03:28;2.13;;;0.57;;
19675;SDS011;39539;52.202;9.876;2022-09-27T11:05:55;2.60;;;0.73;;
19675;SDS011;39539;52.202;9.876;2022-09-27T11:08:32;1.75;;;0.40;;
19675;SDS011;39539;52.202;9.876;2022-09-27T11:13:24;0.98;;;0.47;;
19675;SDS011;39539;52.202;9.876;2022-09-27T11:18:51;5.18;;;0.63;;
19675;SDS011;39539;52.202;9.876;2022-09-27T11:29:50;1.38;;;0.50;;
19675;SDS011;39539;52.202;9.876;2022-09-27T11:32:43;1.52;;;0.60;;
19675;SDS011;39539;52.202;9.876;2022-09-27T11:44:01;1.10;;;0.50;;
19675;SDS011;39539;52.202;9.876;2022-09-27T11:46:36;1.58;;;0.38;;
19675;SDS011;39539;52.202;9.876;2022-09-27T12:08:33;1.70;;;0.65;;
19675;SDS011;39539;52.202;9.876;2022-09-27T12:13:46;3.55;;;0.98;;
19675;SDS011;39539;52.202;9.876;2022-09-27T12:16:25;1.48;;;0.32;;
19675;SDS011;39539;52.202;9.876;2022-09-27T12:18:52;1.17;;;0.38;;
19675;SDS011;39539;52.202;9.876;2022-09-27T12:21:19;0.70;;;0.35;;
19675;SDS011;39539;52.202;9.876;2022-09-27T12:23:49;1.02;;;0.50;;
19675;SDS011;39539;52.202;9.876;2022-09-27T12:26:37;0.77;;;0.47;;
19675;SDS011;39539;52.202;9.876;2022-09-27T12:29:14;1.30;;;0.60;;
19675;SDS011;39539;52.202;9.876;2022-09-27T12:34:50;0.50;;;0.30;;
19675;SDS011;39539;52.202;9.876;2022-09-27T12:37:34;0.95;;;0.30;;
19675;SDS011;39539;52.202;9.876;2022-09-27T12:43:18;1.10;;;0.40;;
19675;SDS011;39539;52.202;9.876;2022-09-27T12:45:52;0.60;;;0.30;;
19675;SDS011;39539;52.202;9.876;2022-09-27T12:51:19;1.50;;;0.25;;
19675;SDS011;39539;52.202;9.876;2022-09-27T13:05:13;0.15;;;0.15;;
19675;SDS011;39539;52.202;9.876;2022-09-27T13:13:33;0.15;;;0.15;;
19675;SDS011;39539;52.202;9.876;2022-09-27T13:16:07;0.57;;;0.15;;
19675;SDS011;39539;52.202;9.876;2022-09-27T13:21:11;0.38;;;0.30;;
19675;SDS011;39539;52.202;9.876;2022-09-27T13:32:36;0.10;;;0.10;;
19675;SDS011;39539;52.202;9.876;2022-09-27T13:35:21;0.45;;;0.30;;
19675;SDS011;39539;52.202;9.876;2022-09-27T13:37:54;0.20;;;0.20;;
19675;SDS011;39539;52.202;9.876;2022-09-27T13:40:33;0.43;;;0.30;;
19675;SDS011;39539;52.202;9.876;2022-09-27T13:45:58;0.17;;;0.10;;
19675;SDS011;39539;52.202;9.876;2022-09-27T13:50:56;0.17;;;0.17;;
19675;SDS011;39539;52.202;9.876;2022-09-27T13:53:24;0.65;;;0.20;;
19675;SDS011;39539;52.202;9.876;2022-09-27T13:55:54;0.30;;;0.20;;
19675;SDS011;39539;52.202;9.876;2022-09-27T14:00:49;0.95;;;0.30;;
19675;SDS011;39539;52.202;9.876;2022-09-27T14:05:57;1.02;;;0.38;;
19675;SDS011;39539;52.202;9.876;2022-09-27T14:08:28;2.40;;;0.40;;
19675;SDS011;39539;52.202;9.876;2022-09-27T14:10:57;1.02;;;0.20;;
19675;SDS011;39539;52.202;9.876;2022-09-27T14:13:24;0.50;;;0.30;;
19675;SDS011;39539;52.202;9.876;2022-09-27T14:15:51;1.05;;;0.40;;
19675;SDS011;39539;52.202;9.876;2022-09-27T14:18:20;1.27;;;0.40;;
19675;SDS011;39539;52.202;9.876;2022-09-27T14:20:50;0.52;;;0.35;;
19675;SDS011;39539;52.202;9.876;2022-09-27T14:23:20;1.30;;;0.40;;
19675;SDS011;39539;52.202;9.876;2022-09-27T14:25:50;0.60;;;0.35;;
19675;SDS011;39539;52.202;9.876;2022-09-27T14:28:27;1.30;;;0.50;;
19675;SDS011;39539;52.202;9.876;2022-09-27T14:31:13;1.33;;;0.50;;
19675;SDS011;39539;52.202;9.876;2022-09-27T14:33:42;1.55;;;0.50;;
19675;SDS011;39539;52.202;9.876;2022-09-27T14:36:42;0.85;;;0.50;;
19675;SDS011;39539;52.202;9.876;2022-09-27T14:39:21;0.60;;;0.60;;
19675;SDS011;39539;52.202;9.876;2022-09-27T14:41:49;0.68;;;0.50;;
19675;SDS011;39539;52.202;9.876;2022-09-27T14:44:16;1.37;;;0.70;;
19675;SDS011;39539;52.202;9.876;2022-09-27T14:46:44;0.60;;;0.60;;
19675;SDS011;39539;52.202;9.876;2022-09-27T14:49:20;0.60;;;0.60;;
19675;SDS011;39539;52.202;9.876;2022-09-27T14:51:54;0.85;;;0.70;;
19675;SDS011;39539;52.202;9.876;2022-09-27T14:54:22;0.60;;;0.60;;
19675;SDS011;39539;52.202;9.876;2022-09-27T14:56:51;2.13;;;0.95;;
19675;SDS011;39539;52.202;9.876;2022-09-27T14:59:30;0.77;;;0.63;;
19675;SDS011;39539;52.202;9.876;2022-09-27T15:02:01;2.38;;;0.60;;
19675;SDS011;39539;52.202;9.876;2022-09-27T15:04:35;0.57;;;0.57;;
19675;SDS011;39539;52.202;9.876;2022-09-27T15:07:01;1.80;;;0.80;;
19675;SDS011;39539;52.202;9.876;2022-09-27T15:09:27;1.27;;;0.98;;
19675;SDS011;39539;52.202;9.876;2022-09-27T15:11:54;0.60;;;0.60;;
19675;SDS011;39539;52.202;9.876;2022-09-27T15:14:24;1.30;;;0.50;;
19675;SDS011;39539;52.202;9.876;2022-09-27T15:16:53;0.68;;;0.40;;
19675;SDS011;39539;52.202;9.876;2022-09-27T15:19:26;0.68;;;0.40;;
19675;SDS011;39539;52.202;9.876;2022-09-27T15:21:53;0.85;;;0.40;;
19675;SDS011;39539;52.202;9.876;2022-09-27T15:24:39;0.60;;;0.38;;
19675;SDS011;39539;52.202;9.876;2022-09-27T15:27:12;1.10;;;0.40;;
19675;SDS011;39539;52.202;9.876;2022-09-27T15:29:49;0.30;;;0.30;;
19675;SDS011;39539;52.202;9.876;2022-09-27T15:32:16;0.40;;;0.40;;
19675;SDS011;39539;52.202;9.876;2022-09-27T15:34:44;0.68;;;0.40;;
19675;SDS011;39539;52.202;9.876;2022-09-27T15:37:27;1.17;;;0.40;;
19675;SDS011;39539;52.202;9.876;2022-09-27T15:45:33;0.47;;;0.45;;
19675;SDS011;39539;52.202;9.876;2022-09-27T15:48:13;1.38;;;0.35;;
19675;SDS011;39539;52.202;9.876;2022-09-27T15:50:40;0.73;;;0.60;;
19675;SDS011;39539;52.202;9.876;2022-09-27T15:53:07;1.70;;;0.52;;
19675;SDS011;39539;52.202;9.876;2022-09-27T15:55:42;0.70;;;0.40;;
19675;SDS011;39539;52.202;9.876;2022-09-27T16:03:15;0.73;;;0.73;;
19675;SDS011;39539;52.202;9.876;2022-09-27T16:05:40;0.50;;;0.50;;
19675;SDS011;39539;52.202;9.876;2022-09-27T16:08:09;0.63;;;0.50;;
19675;SDS011;39539;52.202;9.876;2022-09-27T16:10:36;1.77;;;0.70;;
19675;SDS011;39539;52.202;9.876;2022-09-27T16:13:03;1.67;;;0.70;;
19675;SDS011;39539;52.202;9.876;2022-09-27T16:15:29;1.30;;;1.00;;
19675;SDS011;39539;52.202;9.876;2022-09-27T16:17:55;1.10;;;1.00;;
19675;SDS011;39539;52.202;9.876;2022-09-27T16:20:22;0.70;;;0.70;;
19675;SDS011;39539;52.202;9.876;2022-09-27T16:22:51;0.77;;;0.77;;
19675;SDS011;39539;52.202;9.876;2022-09-27T16:25:18;0.70;;;0.70;;
19675;SDS011;39539;52.202;9.876;2022-09-27T16:27:44;1.02;;;0.93;;
19675;SDS011;39539;52.202;9.876;2022-09-27T16:30:10;0.80;;;0.80;;
19675;SDS011;39539;52.202;9.876;2022-09-27T16:32:42;0.95;;;0.80;;
19675;SDS011;39539;52.202;9.876;2022-09-27T16:35:12;0.80;;;0.80;;
19675;SDS011;39539;52.202;9.876;2022-09-27T16:37:38;1.80;;;0.80;;
19675;SDS011;39539;52.202;9.876;2022-09-27T16:40:05;0.93;;;0.90;;
19675;SDS011;39539;52.202;9.876;2022-09-27T16:42:35;1.73;;;0.93;;
19675;SDS011;39539;52.202;9.876;2022-09-27T16:45:01;0.90;;;0.90;;
19675;SDS011;39539;52.202;9.876;2022-09-27T16:47:31;1.50;;;1.15;;
19675;SDS011;39539;52.202;9.876;2022-09-27T16:50:01;1.73;;;1.30;;
19675;SDS011;39539;52.202;9.876;2022-09-27T16:52:46;1.65;;;1.10;;
19675;SDS011;39539;52.202;9.876;2022-09-27T16:55:14;1.40;;;1.30;;
19675;SDS011;39539;52.202;9.876;2022-09-27T16:57:42;1.60;;;1.50;;
19675;SDS011;39539;52.202;9.876;2022-09-27T17:00:07;1.80;;;1.70;;
19675;SDS011;39539;52.202;9.876;2022-09-27T17:02:33;1.85;;;1.75;;
19675;SDS011;39539;52.202;9.876;2022-09-27T17:04:59;1.70;;;1.60;;
19675;SDS011;39539;52.202;9.876;2022-09-27T17:07:25;1.20;;;1.20;;
19675;SDS011;39539;52.202;9.876;2022-09-27T17:09:52;1.35;;;1.20;;
19675;SDS011;39539;52.202;9.876;2022-09-27T17:12:18;1.63;;;1.42;;
19675;SDS011;39539;52.202;9.876;2022-09-27T17:14:46;1.23;;;1.00;;
19675;SDS011;39539;52.202;9.876;2022-09-27T17:17:11;2.55;;;1.08;;
19675;SDS011;39539;52.202;9.876;2022-09-27T17:19:37;1.98;;;1.10;;
19675;SDS011;39539;52.202;9.876;2022-09-27T17:22:07;2.00;;;1.10;;
19675;SDS011;39539;52.202;9.876;2022-09-27T17:24:35;0.90;;;0.90;;
19675;SDS011;39539;52.202;9.876;2022-09-27T17:27:01;1.10;;;1.00;;
19675;SDS011;39539;52.202;9.876;2022-09-27T17:29:26;1.00;;;1.00;;
19675;SDS011;39539;52.202;9.876;2022-09-27T17:31:52;1.23;;;0.95;;
19675;SDS011;39539;52.202;9.876;2022-09-27T17:34:18;1.00;;;1.00;;
19675;SDS011;39539;52.202;9.876;2022-09-27T17:36:44;0.80;;;0.80;;
19675;SDS011;39539;52.202;9.876;2022-09-27T17:39:15;1.10;;;1.08;;
19675;SDS011;39539;52.202;9.876;2022-09-27T17:41:41;1.35;;;1.33;;
19675;SDS011;39539;52.202;9.876;2022-09-27T17:44:13;1.77;;;1.48;;
19675;SDS011;39539;52.202;9.876;2022-09-27T17:46:39;2.20;;;2.00;;
19675;SDS011;39539;52.202;9.876;2022-09-27T17:49:06;2.13;;;2.03;;
19675;SDS011;39539;52.202;9.876;2022-09-27T17:51:52;2.58;;;2.38;;
19675;SDS011;39539;52.202;9.876;2022-09-27T17:54:18;2.50;;;2.30;;
19675;SDS011;39539;52.202;9.876;2022-09-27T17:56:46;2.72;;;2.53;;
19675;SDS011;39539;52.202;9.876;2022-09-27T17:59:16;2.40;;;2.20;;
19675;SDS011;39539;52.202;9.876;2022-09-27T18:01:43;2.33;;;2.22;;
19675;SDS011;39539;52.202;9.876;2022-09-27T18:04:11;2.40;;;2.30;;
19675;SDS011;39539;52.202;9.876;2022-09-27T18:06:42;2.70;;;2.50;;
19675;SDS011;39539;52.202;9.876;2022-09-27T18:09:12;2.00;;;1.90;;
19675;SDS011;39539;52.202;9.876;2022-09-27T18:11:39;2.05;;;1.88;;